sensor_id;sensor_type;location;lat;lon;timestamp;P1;durP1;ratioP1;P2;durP2;ratioP2
2860;SDS011;1438;50.922;6.704;2023-04-01T00:02:17;2.10;;;0.70;;
2860;SDS011;1438;50.922;6.704;2023-04-01T00:04:43;1.50;;;0.90;;
2860;SDS011;1438;50.922;6.704;2023-04-01T00:07:10;5.18;;;1.67;;
2860;SDS011;1438;50.922;6.704;2023-04-01T00:09:36;0.98;;;0.55;;
2860;SDS011;1438;50.922;6.704;2023-04-01T00:12:02;1.02;;;0.60;;
2860;SDS011;1438;50.922;6.704;2023-04-01T00:14:29;1.55;;;0.70;;
2860;SDS011;1438;50.922;6.704;2023-04-01T00:16:55;3.53;;;1.15;;
2860;SDS011;1438;50.922;6.704;2023-04-01T00:19:21;2.20;;;0.80;;
2860;SDS011;1438;50.922;6.704;2023-04-01T00:21:47;2.45;;;0.90;;
2860;SDS011;1438;50.922;6.704;2023-04-01T00:24:13;0.90;;;0.60;;
2860;SDS011;1438;50.922;6.704;2023-04-01T00:26:39;2.00;;;1.00;;
2860;SDS011;1438;50.922;6.704;2023-04-01T00:29:07;2.30;;;0.70;;
2860;SDS011;1438;50.922;6.704;2023-04-01T00:31:33;1.90;;;0.77;;
2860;SDS011;1438;50.922;6.704;2023-04-01T00:33:59;1.27;;;0.70;;
2860;SDS011;1438;50.922;6.704;2023-04-01T00:36:25;2.47;;;0.87;;
2860;SDS011;1438;50.922;6.704;2023-04-01T00:38:51;2.40;;;0.73;;
2860;SDS011;1438;50.922;6.704;2023-04-01T00:41:17;1.93;;;0.70;;
2860;SDS011;1438;50.922;6.704;2023-04-01T00:43:45;1.80;;;0.80;;
2860;SDS011;1438;50.922;6.704;2023-04-01T00:46:11;1.05;;;0.50;;
2860;SDS011;1438;50.922;6.704;2023-04-01T00:48:38;1.83;;;0.90;;
2860;SDS011;1438;50.922;6.704;2023-04-01T00:51:11;0.95;;;0.50;;
2860;SDS011;1438;50.922;6.704;2023-04-01T00:53:40;1.50;;;0.60;;
2860;SDS011;1438;50.922;6.704;2023-04-01T00:56:10;1.58;;;0.70;;
2860;SDS011;1438;50.922;6.704;2023-04-01T00:58:38;1.20;;;0.60;;
2860;SDS011;1438;50.922;6.704;2023-04-01T01:01:05;1.92;;;0.70;;
2860;SDS011;1438;50.922;6.704;2023-04-01T01:03:31;1.35;;;0.60;;
2860;SDS011;1438;50.922;6.704;2023-04-01T01:06:42;1.20;;;0.60;;
2860;SDS011;1438;50.922;6.704;2023-04-01T01:08:54;0.60;;;0.50;;
2860;SDS011;1438;50.922;6.704;2023-04-01T01:11:28;1.45;;;0.57;;
2860;SDS011;1438;50.922;6.704;2023-04-01T01:14:01;1.13;;;0.50;;
2860;SDS011;1438;50.922;6.704;2023-04-01T01:16:30;0.70;;;0.50;;
2860;SDS011;1438;50.922;6.704;2023-04-01T01:19:24;3.10;;;0.93;;
2860;SDS011;1438;50.922;6.704;2023-04-01T01:27:01;2.50;;;0.50;;
2860;SDS011;1438;50.922;6.704;2023-04-01T01:37:20;1.23;;;0.60;;
2860;SDS011;1438;50.922;6.704;2023-04-01T01:39:49;0.50;;;0.40;;
2860;SDS011;1438;50.922;6.704;2023-04-01T01:42:16;0.63;;;0.50;;
2860;SDS011;1438;50.922;6.704;2023-04-01T01:44:44;0.70;;;0.50;;
2860;SDS011;1438;50.922;6.704;2023-04-01T01:47:11;1.77;;;0.70;;
2860;SDS011;1438;50.922;6.704;2023-04-01T01:49:37;1.60;;;0.60;;
2860;SDS011;1438;50.922;6.704;2023-04-01T01:52:05;0.70;;;0.50;;
2860;SDS011;1438;50.922;6.704;2023-04-01T01:54:31;0.73;;;0.50;;
2860;SDS011;1438;50.922;6.704;2023-04-01T01:57:01;0.60;;;0.50;;
2860;SDS011;1438;50.922;6.704;2023-04-01T01:59:29;0.60;;;0.50;;
2860;SDS011;1438;50.922;6.704;2023-04-01T02:01:56;0.70;;;0.50;;
2860;SDS011;1438;50.922;6.704;2023-04-01T02:04:22;2.03;;;0.50;;
2860;SDS011;1438;50.922;6.704;2023-04-01T02:06:59;1.33;;;0.40;;
2860;SDS011;1438;50.922;6.704;2023-04-01T02:09:26;2.00;;;0.80;;
2860;SDS011;1438;50.922;6.704;2023-04-01T02:11:57;0.80;;;0.50;;
2860;SDS011;1438;50.922;6.704;2023-04-01T02:14:26;0.70;;;0.50;;
2860;SDS011;1438;50.922;6.704;2023-04-01T02:17:04;0.70;;;0.50;;
2860;SDS011;1438;50.922;6.704;2023-04-01T02:19:36;1.50;;;0.50;;
2860;SDS011;1438;50.922;6.704;2023-04-01T02:22:04;1.67;;;0.55;;
2860;SDS011;1438;50.922;6.704;2023-04-01T02:24:32;0.70;;;0.50;;
2860;SDS011;1438;50.922;6.704;2023-04-01T02:26:59;0.88;;;0.55;;
2860;SDS011;1438;50.922;6.704;2023-04-01T02:29:25;1.27;;;0.50;;
2860;SDS011;1438;50.922;6.704;2023-04-01T02:31:52;1.27;;;0.63;;
2860;SDS011;1438;50.922;6.704;2023-04-01T02:34:19;1.35;;;0.60;;
2860;SDS011;1438;50.922;6.704;2023-04-01T02:36:45;0.98;;;0.50;;
2860;SDS011;1438;50.922;6.704;2023-04-01T02:39:13;0.90;;;0.50;;
2860;SDS011;1438;50.922;6.704;2023-04-01T02:41:40;1.80;;;0.65;;
2860;SDS011;1438;50.922;6.704;2023-04-01T02:44:06;0.70;;;0.52;;
2860;SDS011;1438;50.922;6.704;2023-04-01T02:46:32;0.70;;;0.52;;
2860;SDS011;1438;50.922;6.704;2023-04-01T02:48:58;2.90;;;1.25;;
2860;SDS011;1438;50.922;6.704;2023-04-01T02:51:25;0.80;;;0.50;;
2860;SDS011;1438;50.922;6.704;2023-04-01T02:53:51;0.60;;;0.50;;
2860;SDS011;1438;50.922;6.704;2023-04-01T02:56:17;1.15;;;0.50;;
2860;SDS011;1438;50.922;6.704;2023-04-01T02:58:44;0.93;;;0.68;;
2860;SDS011;1438;50.922;6.704;2023-04-01T03:01:10;1.00;;;0.60;;
2860;SDS011;1438;50.922;6.704;2023-04-01T03:03:36;1.73;;;0.60;;
2860;SDS011;1438;50.922;6.704;2023-04-01T03:06:09;0.80;;;0.50;;
2860;SDS011;1438;50.922;6.704;2023-04-01T03:08:35;1.17;;;0.60;;
2860;SDS011;1438;50.922;6.704;2023-04-01T03:11:01;0.97;;;0.50;;
2860;SDS011;1438;50.922;6.704;2023-04-01T03:13:27;0.60;;;0.40;;
2860;SDS011;1438;50.922;6.704;2023-04-01T03:15:53;0.80;;;0.73;;
2860;SDS011;1438;50.922;6.704;2023-04-01T03:18:20;0.60;;;0.50;;
2860;SDS011;1438;50.922;6.704;2023-04-01T03:20:46;1.08;;;0.60;;
2860;SDS011;1438;50.922;6.704;2023-04-01T03:23:12;0.60;;;0.50;;
2860;SDS011;1438;50.922;6.704;2023-04-01T03:25:38;0.70;;;0.55;;
2860;SDS011;1438;50.922;6.704;2023-04-01T03:28:04;0.60;;;0.50;;
2860;SDS011;1438;50.922;6.704;2023-04-01T03:30:30;0.70;;;0.50;;
2860;SDS011;1438;50.922;6.704;2023-04-01T03:32:57;1.00;;;0.60;;
2860;SDS011;1438;50.922;6.704;2023-04-01T03:35:24;0.85;;;0.50;;
2860;SDS011;1438;50.922;6.704;2023-04-01T03:37:51;0.60;;;0.50;;
2860;SDS011;1438;50.922;6.704;2023-04-01T03:40:17;0.85;;;0.50;;
2860;SDS011;1438;50.922;6.704;2023-04-01T03:42:43;1.05;;;0.50;;
2860;SDS011;1438;50.922;6.704;2023-04-01T03:45:10;1.23;;;0.50;;
2860;SDS011;1438;50.922;6.704;2023-04-01T03:47:39;0.70;;;0.43;;
2860;SDS011;1438;50.922;6.704;2023-04-01T03:50:06;2.13;;;0.50;;
2860;SDS011;1438;50.922;6.704;2023-04-01T03:52:33;1.05;;;0.50;;
2860;SDS011;1438;50.922;6.704;2023-04-01T03:54:59;1.25;;;0.93;;
2860;SDS011;1438;50.922;6.704;2023-04-01T03:57:25;0.70;;;0.50;;
2860;SDS011;1438;50.922;6.704;2023-04-01T03:59:51;1.48;;;0.50;;
2860;SDS011;1438;50.922;6.704;2023-04-01T04:02:17;0.70;;;0.50;;
2860;SDS011;1438;50.922;6.704;2023-04-01T04:04:43;0.60;;;0.50;;
2860;SDS011;1438;50.922;6.704;2023-04-01T04:07:09;0.60;;;0.50;;
2860;SDS011;1438;50.922;6.704;2023-04-01T04:09:35;0.70;;;0.60;;
2860;SDS011;1438;50.922;6.704;2023-04-01T04:12:01;0.60;;;0.50;;
2860;SDS011;1438;50.922;6.704;2023-04-01T04:14:27;0.70;;;0.50;;
2860;SDS011;1438;50.922;6.704;2023-04-01T04:16:53;0.70;;;0.50;;
2860;SDS011;1438;50.922;6.704;2023-04-01T04:19:19;0.70;;;0.50;;
2860;SDS011;1438;50.922;6.704;2023-04-01T04:21:45;1.67;;;0.53;;
2860;SDS011;1438;50.922;6.704;2023-04-01T04:24:11;2.93;;;0.60;;
2860;SDS011;1438;50.922;6.704;2023-04-01T04:26:37;1.37;;;0.50;;
2860;SDS011;1438;50.922;6.704;2023-04-01T04:29:03;0.90;;;0.53;;
2860;SDS011;1438;50.922;6.704;2023-04-01T04:31:29;0.70;;;0.50;;
2860;SDS011;1438;50.922;6.704;2023-04-01T04:33:55;0.88;;;0.60;;
2860;SDS011;1438;50.922;6.704;2023-04-01T04:36:21;0.80;;;0.50;;
2860;SDS011;1438;50.922;6.704;2023-04-01T04:38:47;1.80;;;0.60;;
2860;SDS011;1438;50.922;6.704;2023-04-01T04:41:14;0.70;;;0.50;;
2860;SDS011;1438;50.922;6.704;2023-04-01T04:43:42;1.52;;;0.60;;
2860;SDS011;1438;50.922;6.704;2023-04-01T04:46:13;0.75;;;0.60;;
2860;SDS011;1438;50.922;6.704;2023-04-01T04:48:39;0.70;;;0.50;;
2860;SDS011;1438;50.922;6.704;2023-04-01T04:51:06;1.80;;;0.60;;
2860;SDS011;1438;50.922;6.704;2023-04-01T04:53:32;1.00;;;0.50;;
2860;SDS011;1438;50.922;6.704;2023-04-01T04:55:58;2.65;;;0.75;;
2860;SDS011;1438;50.922;6.704;2023-04-01T04:58:24;2.53;;;0.57;;
2860;SDS011;1438;50.922;6.704;2023-04-01T05:00:51;0.60;;;0.50;;
2860;SDS011;1438;50.922;6.704;2023-04-01T05:03:17;0.70;;;0.50;;
2860;SDS011;1438;50.922;6.704;2023-04-01T05:05:52;2.58;;;0.70;;
2860;SDS011;1438;50.922;6.704;2023-04-01T05:08:19;1.23;;;0.60;;
2860;SDS011;1438;50.922;6.704;2023-04-01T05:10:45;0.60;;;0.50;;
2860;SDS011;1438;50.922;6.704;2023-04-01T05:13:11;1.95;;;0.70;;
2860;SDS011;1438;50.922;6.704;2023-04-01T05:15:37;1.77;;;0.70;;
2860;SDS011;1438;50.922;6.704;2023-04-01T05:18:03;1.05;;;0.93;;
2860;SDS011;1438;50.922;6.704;2023-04-01T05:20:29;1.38;;;0.63;;
2860;SDS011;1438;50.922;6.704;2023-04-01T05:22:56;2.47;;;0.60;;
2860;SDS011;1438;50.922;6.704;2023-04-01T05:25:22;1.00;;;0.55;;
2860;SDS011;1438;50.922;6.704;2023-04-01T05:27:48;1.03;;;0.50;;
2860;SDS011;1438;50.922;6.704;2023-04-01T05:30:14;0.87;;;0.60;;
2860;SDS011;1438;50.922;6.704;2023-04-01T05:32:40;2.78;;;0.60;;
2860;SDS011;1438;50.922;6.704;2023-04-01T05:35:06;0.80;;;0.70;;
2860;SDS011;1438;50.922;6.704;2023-04-01T05:37:35;2.08;;;0.70;;
2860;SDS011;1438;50.922;6.704;2023-04-01T05:40:02;1.23;;;0.60;;
2860;SDS011;1438;50.922;6.704;2023-04-01T05:42:28;1.75;;;0.88;;
2860;SDS011;1438;50.922;6.704;2023-04-01T05:44:54;1.20;;;0.70;;
2860;SDS011;1438;50.922;6.704;2023-04-01T05:47:20;1.98;;;0.60;;
2860;SDS011;1438;50.922;6.704;2023-04-01T05:49:46;2.22;;;0.90;;
2860;SDS011;1438;50.922;6.704;2023-04-01T05:52:12;1.50;;;0.90;;
2860;SDS011;1438;50.922;6.704;2023-04-01T05:54:38;1.25;;;0.70;;
2860;SDS011;1438;50.922;6.704;2023-04-01T05:57:04;2.13;;;0.73;;
2860;SDS011;1438;50.922;6.704;2023-04-01T05:59:30;1.10;;;0.93;;
2860;SDS011;1438;50.922;6.704;2023-04-01T06:01:56;2.40;;;1.00;;
2860;SDS011;1438;50.922;6.704;2023-04-01T06:04:23;1.85;;;1.10;;
2860;SDS011;1438;50.922;6.704;2023-04-01T06:06:50;2.47;;;1.13;;
2860;SDS011;1438;50.922;6.704;2023-04-01T06:09:23;1.02;;;0.80;;
2860;SDS011;1438;50.922;6.704;2023-04-01T06:30:38;4.00;;;1.67;;
2860;SDS011;1438;50.922;6.704;2023-04-01T06:46:04;1.98;;;1.70;;
2860;SDS011;1438;50.922;6.704;2023-04-01T06:53:41;6.13;;;2.00;;
2860;SDS011;1438;50.922;6.704;2023-04-01T06:56:14;2.35;;;1.60;;
2860;SDS011;1438;50.922;6.704;2023-04-01T06:58:42;1.80;;;1.55;;
2860;SDS011;1438;50.922;6.704;2023-04-01T07:01:13;4.97;;;1.38;;
2860;SDS011;1438;50.922;6.704;2023-04-01T07:03:41;6.68;;;2.15;;
2860;SDS011;1438;50.922;6.704;2023-04-01T07:06:10;1.73;;;1.48;;
2860;SDS011;1438;50.922;6.704;2023-04-01T07:08:39;1.95;;;1.63;;
2860;SDS011;1438;50.922;6.704;2023-04-01T07:11:06;2.50;;;1.75;;
2860;SDS011;1438;50.922;6.704;2023-04-01T07:16:08;5.65;;;1.55;;
2860;SDS011;1438;50.922;6.704;2023-04-01T07:21:06;3.65;;;1.80;;
2860;SDS011;1438;50.922;6.704;2023-04-01T07:23:38;2.05;;;1.80;;
2860;SDS011;1438;50.922;6.704;2023-04-01T07:26:08;7.40;;;1.70;;
2860;SDS011;1438;50.922;6.704;2023-04-01T07:28:36;1.50;;;1.33;;
2860;SDS011;1438;50.922;6.704;2023-04-01T07:36:14;3.35;;;1.50;;
2860;SDS011;1438;50.922;6.704;2023-04-01T07:41:30;3.13;;;1.58;;
2860;SDS011;1438;50.922;6.704;2023-04-01T07:44:01;1.50;;;1.40;;
2860;SDS011;1438;50.922;6.704;2023-04-01T07:49:14;1.20;;;1.10;;
2860;SDS011;1438;50.922;6.704;2023-04-01T07:51:44;1.60;;;1.40;;
2860;SDS011;1438;50.922;6.704;2023-04-01T07:59:43;1.15;;;1.05;;
2860;SDS011;1438;50.922;6.704;2023-04-01T08:05:00;1.63;;;1.45;;
2860;SDS011;1438;50.922;6.704;2023-04-01T08:07:36;3.38;;;1.42;;
2860;SDS011;1438;50.922;6.704;2023-04-01T08:15:15;2.53;;;1.60;;
2860;SDS011;1438;50.922;6.704;2023-04-01T08:20:33;1.73;;;1.52;;
2860;SDS011;1438;50.922;6.704;2023-04-01T08:23:03;2.47;;;1.33;;
2860;SDS011;1438;50.922;6.704;2023-04-01T08:25:33;1.83;;;1.23;;
2860;SDS011;1438;50.922;6.704;2023-04-01T08:28:01;1.30;;;1.20;;
2860;SDS011;1438;50.922;6.704;2023-04-01T08:32:59;2.50;;;1.30;;
2860;SDS011;1438;50.922;6.704;2023-04-01T08:35:31;2.15;;;1.30;;
2860;SDS011;1438;50.922;6.704;2023-04-01T08:38:00;1.05;;;0.77;;
2860;SDS011;1438;50.922;6.704;2023-04-01T08:48:36;1.42;;;1.08;;
2860;SDS011;1438;50.922;6.704;2023-04-01T08:56:23;2.13;;;1.23;;
2860;SDS011;1438;50.922;6.704;2023-04-01T09:09:02;1.88;;;1.45;;
2860;SDS011;1438;50.922;6.704;2023-04-01T09:20:25;1.67;;;1.23;;
2860;SDS011;1438;50.922;6.704;2023-04-01T09:22:58;1.00;;;0.90;;
2860;SDS011;1438;50.922;6.704;2023-04-01T09:27:57;4.22;;;1.45;;
2860;SDS011;1438;50.922;6.704;2023-04-01T09:38:18;1.23;;;1.13;;
2860;SDS011;1438;50.922;6.704;2023-04-01T09:54:13;1.98;;;1.70;;
2860;SDS011;1438;50.922;6.704;2023-04-01T10:19:54;1.90;;;1.80;;
2860;SDS011;1438;50.922;6.704;2023-04-01T10:24:58;1.92;;;1.83;;
2860;SDS011;1438;50.922;6.704;2023-04-01T10:33:15;1.70;;;1.60;;
2860;SDS011;1438;50.922;6.704;2023-04-01T10:53:40;1.30;;;1.20;;
2860;SDS011;1438;50.922;6.704;2023-04-01T11:01:37;1.40;;;1.30;;
2860;SDS011;1438;50.922;6.704;2023-04-01T11:07:13;2.03;;;1.60;;
2860;SDS011;1438;50.922;6.704;2023-04-01T11:10:02;1.60;;;1.30;;
2860;SDS011;1438;50.922;6.704;2023-04-01T11:13:14;1.67;;;1.30;;
2860;SDS011;1438;50.922;6.704;2023-04-01T11:32:31;2.28;;;1.75;;
2860;SDS011;1438;50.922;6.704;2023-04-01T11:37:30;1.60;;;1.50;;
2860;SDS011;1438;50.922;6.704;2023-04-01T11:42:40;1.90;;;1.70;;
2860;SDS011;1438;50.922;6.704;2023-04-01T11:50:21;1.70;;;1.60;;
2860;SDS011;1438;50.922;6.704;2023-04-01T11:55:23;1.87;;;1.77;;
2860;SDS011;1438;50.922;6.704;2023-04-01T12:03:01;1.63;;;1.52;;
2860;SDS011;1438;50.922;6.704;2023-04-01T12:08:09;2.05;;;1.85;;
2860;SDS011;1438;50.922;6.704;2023-04-01T12:10:41;1.50;;;1.40;;
2860;SDS011;1438;50.922;6.704;2023-04-01T12:13:14;1.60;;;1.42;;
2860;SDS011;1438;50.922;6.704;2023-04-01T12:15:52;1.33;;;1.23;;
2860;SDS011;1438;50.922;6.704;2023-04-01T12:23:30;1.53;;;1.43;;
2860;SDS011;1438;50.922;6.704;2023-04-01T12:33:52;1.73;;;1.63;;
2860;SDS011;1438;50.922;6.704;2023-04-01T12:36:45;1.48;;;1.30;;
2860;SDS011;1438;50.922;6.704;2023-04-01T12:39:11;1.55;;;1.40;;
2860;SDS011;1438;50.922;6.704;2023-04-01T12:44:16;1.30;;;1.20;;
2860;SDS011;1438;50.922;6.704;2023-04-01T12:52:03;1.67;;;1.58;;
2860;SDS011;1438;50.922;6.704;2023-04-01T13:07:59;1.33;;;1.23;;
2860;SDS011;1438;50.922;6.704;2023-04-01T13:13:31;1.83;;;1.73;;
2860;SDS011;1438;50.922;6.704;2023-04-01T13:21:01;2.00;;;1.90;;
2860;SDS011;1438;50.922;6.704;2023-04-01T13:28:57;2.58;;;2.38;;
2860;SDS011;1438;50.922;6.704;2023-04-01T13:34:04;2.60;;;2.40;;
2860;SDS011;1438;50.922;6.704;2023-04-01T13:42:14;2.60;;;2.40;;
2860;SDS011;1438;50.922;6.704;2023-04-01T13:44:50;3.03;;;2.72;;
2860;SDS011;1438;50.922;6.704;2023-04-01T13:49:57;2.22;;;2.03;;
2860;SDS011;1438;50.922;6.704;2023-04-01T13:52:33;2.55;;;2.35;;
2860;SDS011;1438;50.922;6.704;2023-04-01T14:10:36;2.88;;;2.58;;
2860;SDS011;1438;50.922;6.704;2023-04-01T14:18:13;2.65;;;2.13;;
2860;SDS011;1438;50.922;6.704;2023-04-01T14:20:45;1.98;;;1.80;;
2860;SDS011;1438;50.922;6.704;2023-04-01T14:28:49;1.75;;;1.65;;
2860;SDS011;1438;50.922;6.704;2023-04-01T14:36:45;2.63;;;2.20;;
2860;SDS011;1438;50.922;6.704;2023-04-01T14:50:18;2.30;;;2.10;;
2860;SDS011;1438;50.922;6.704;2023-04-01T14:52:57;2.15;;;1.95;;
2860;SDS011;1438;50.922;6.704;2023-04-01T14:58:19;1.85;;;1.75;;
2860;SDS011;1438;50.922;6.704;2023-04-01T15:00:48;2.78;;;2.33;;
2860;SDS011;1438;50.922;6.704;2023-04-01T15:03:20;6.88;;;1.80;;
2860;SDS011;1438;50.922;6.704;2023-04-01T15:08:32;2.60;;;2.40;;
2860;SDS011;1438;50.922;6.704;2023-04-01T15:16:23;3.28;;;2.97;;
2860;SDS011;1438;50.922;6.704;2023-04-01T15:21:49;3.33;;;3.03;;
2860;SDS011;1438;50.922;6.704;2023-04-01T15:24:24;3.40;;;3.10;;
2860;SDS011;1438;50.922;6.704;2023-04-01T15:32:16;3.20;;;2.90;;
2860;SDS011;1438;50.922;6.704;2023-04-01T15:45:39;3.15;;;2.80;;
2860;SDS011;1438;50.922;6.704;2023-04-01T15:53:11;2.53;;;2.33;;
2860;SDS011;1438;50.922;6.704;2023-04-01T15:55:43;3.35;;;3.05;;
2860;SDS011;1438;50.922;6.704;2023-04-01T16:00:58;3.20;;;2.75;;
2860;SDS011;1438;50.922;6.704;2023-04-01T16:24:53;4.07;;;3.10;;
2860;SDS011;1438;50.922;6.704;2023-04-01T16:32:51;3.30;;;3.10;;
2860;SDS011;1438;50.922;6.704;2023-04-01T16:37:53;3.35;;;3.05;;
2860;SDS011;1438;50.922;6.704;2023-04-01T16:42:50;3.03;;;2.73;;
2860;SDS011;1438;50.922;6.704;2023-04-01T16:45:30;3.40;;;3.10;;
2860;SDS011;1438;50.922;6.704;2023-04-01T16:48:06;2.88;;;2.67;;
2860;SDS011;1438;50.922;6.704;2023-04-01T16:50:44;2.97;;;2.72;;
2860;SDS011;1438;50.922;6.704;2023-04-01T16:58:10;3.00;;;2.70;;
2860;SDS011;1438;50.922;6.704;2023-04-01T17:00:41;2.95;;;2.40;;
2860;SDS011;1438;50.922;6.704;2023-04-01T17:03:16;2.72;;;2.47;;
2860;SDS011;1438;50.922;6.704;2023-04-01T17:11:10;3.00;;;2.75;;
2860;SDS011;1438;50.922;6.704;2023-04-01T17:16:23;3.20;;;2.90;;
2860;SDS011;1438;50.922;6.704;2023-04-01T17:26:38;5.20;;;3.00;;
2860;SDS011;1438;50.922;6.704;2023-04-01T17:39:30;3.60;;;3.30;;
2860;SDS011;1438;50.922;6.704;2023-04-01T17:42:20;4.55;;;4.15;;
2860;SDS011;1438;50.922;6.704;2023-04-01T17:44:53;4.60;;;4.20;;
2860;SDS011;1438;50.922;6.704;2023-04-01T17:47:27;7.28;;;4.10;;
2860;SDS011;1438;50.922;6.704;2023-04-01T17:50:10;3.95;;;3.60;;
2860;SDS011;1438;50.922;6.704;2023-04-01T17:52:41;4.13;;;3.72;;
2860;SDS011;1438;50.922;6.704;2023-04-01T18:02:50;4.72;;;4.32;;
2860;SDS011;1438;50.922;6.704;2023-04-01T18:13:16;6.00;;;5.20;;
2860;SDS011;1438;50.922;6.704;2023-04-01T18:22:56;5.00;;;4.53;;
2860;SDS011;1438;50.922;6.704;2023-04-01T18:25:28;5.10;;;4.45;;
2860;SDS011;1438;50.922;6.704;2023-04-01T18:30:39;7.60;;;6.80;;
2860;SDS011;1438;50.922;6.704;2023-04-01T18:33:09;5.80;;;5.20;;
2860;SDS011;1438;50.922;6.704;2023-04-01T18:35:53;6.85;;;4.65;;
2860;SDS011;1438;50.922;6.704;2023-04-01T18:38:29;4.90;;;4.43;;
2860;SDS011;1438;50.922;6.704;2023-04-01T18:41:08;5.82;;;5.20;;
2860;SDS011;1438;50.922;6.704;2023-04-01T18:43:40;5.70;;;5.20;;
2860;SDS011;1438;50.922;6.704;2023-04-01T18:51:13;4.85;;;4.35;;
2860;SDS011;1438;50.922;6.704;2023-04-01T18:54:17;5.35;;;4.80;;
2860;SDS011;1438;50.922;6.704;2023-04-01T19:01:26;5.63;;;5.10;;
2860;SDS011;1438;50.922;6.704;2023-04-01T19:04:14;7.18;;;6.57;;
2860;SDS011;1438;50.922;6.704;2023-04-01T19:06:46;6.35;;;5.75;;
2860;SDS011;1438;50.922;6.704;2023-04-01T19:09:25;7.30;;;6.60;;
2860;SDS011;1438;50.922;6.704;2023-04-01T19:17:04;7.65;;;6.35;;
2860;SDS011;1438;50.922;6.704;2023-04-01T19:20:14;7.78;;;7.05;;
2860;SDS011;1438;50.922;6.704;2023-04-01T19:27:30;7.35;;;6.65;;
2860;SDS011;1438;50.922;6.704;2023-04-01T19:32:44;7.72;;;6.93;;
2860;SDS011;1438;50.922;6.704;2023-04-01T19:35:18;10.65;;;9.55;;
2860;SDS011;1438;50.922;6.704;2023-04-01T19:37:54;8.32;;;7.50;;
2860;SDS011;1438;50.922;6.704;2023-04-01T19:43:03;8.60;;;7.38;;
2860;SDS011;1438;50.922;6.704;2023-04-01T19:45:42;9.52;;;8.55;;
2860;SDS011;1438;50.922;6.704;2023-04-01T19:48:24;8.30;;;7.10;;
2860;SDS011;1438;50.922;6.704;2023-04-01T19:51:02;8.20;;;7.40;;
2860;SDS011;1438;50.922;6.704;2023-04-01T19:53:44;8.75;;;7.50;;
2860;SDS011;1438;50.922;6.704;2023-04-01T19:56:19;9.50;;;7.40;;
2860;SDS011;1438;50.922;6.704;2023-04-01T19:58:54;7.35;;;6.65;;
2860;SDS011;1438;50.922;6.704;2023-04-01T20:01:27;8.75;;;7.82;;
2860;SDS011;1438;50.922;6.704;2023-04-01T20:03:58;9.32;;;7.72;;
2860;SDS011;1438;50.922;6.704;2023-04-01T20:06:28;10.43;;;8.35;;
2860;SDS011;1438;50.922;6.704;2023-04-01T20:09:05;9.13;;;7.35;;
2860;SDS011;1438;50.922;6.704;2023-04-01T20:11:52;9.30;;;8.40;;
2860;SDS011;1438;50.922;6.704;2023-04-01T20:14:30;8.98;;;7.28;;
2860;SDS011;1438;50.922;6.704;2023-04-01T20:17:00;8.93;;;7.82;;
2860;SDS011;1438;50.922;6.704;2023-04-01T20:19:28;10.82;;;8.45;;
2860;SDS011;1438;50.922;6.704;2023-04-01T20:21:56;11.85;;;8.27;;
2860;SDS011;1438;50.922;6.704;2023-04-01T20:24:43;9.98;;;8.40;;
2860;SDS011;1438;50.922;6.704;2023-04-01T20:27:15;9.07;;;7.50;;
2860;SDS011;1438;50.922;6.704;2023-04-01T20:32:34;9.18;;;7.57;;
2860;SDS011;1438;50.922;6.704;2023-04-01T20:42:33;6.90;;;6.25;;
2860;SDS011;1438;50.922;6.704;2023-04-01T20:45:18;5.50;;;5.00;;
2860;SDS011;1438;50.922;6.704;2023-04-01T20:52:57;5.78;;;4.88;;
2860;SDS011;1438;50.922;6.704;2023-04-01T21:01:03;7.55;;;4.72;;
2860;SDS011;1438;50.922;6.704;2023-04-01T21:11:25;7.80;;;5.63;;
2860;SDS011;1438;50.922;6.704;2023-04-01T21:17:01;5.80;;;5.20;;
2860;SDS011;1438;50.922;6.704;2023-04-01T21:27:36;6.35;;;5.70;;
2860;SDS011;1438;50.922;6.704;2023-04-01T21:35:05;6.75;;;6.05;;
2860;SDS011;1438;50.922;6.704;2023-04-01T21:48:27;9.27;;;7.28;;
2860;SDS011;1438;50.922;6.704;2023-04-01T21:51:05;8.85;;;7.07;;
2860;SDS011;1438;50.922;6.704;2023-04-01T21:59:09;8.15;;;7.13;;
2860;SDS011;1438;50.922;6.704;2023-04-01T22:04:45;8.23;;;7.07;;
2860;SDS011;1438;50.922;6.704;2023-04-01T22:07:21;8.32;;;7.35;;
2860;SDS011;1438;50.922;6.704;2023-04-01T22:10:01;9.40;;;8.20;;
2860;SDS011;1438;50.922;6.704;2023-04-01T22:12:35;9.30;;;8.30;;
2860;SDS011;1438;50.922;6.704;2023-04-01T22:15:12;10.27;;;9.13;;
2860;SDS011;1438;50.922;6.704;2023-04-01T22:17:45;10.95;;;8.95;;
2860;SDS011;1438;50.922;6.704;2023-04-01T22:20:33;10.82;;;9.73;;
2860;SDS011;1438;50.922;6.704;2023-04-01T22:23:18;11.20;;;10.10;;
2860;SDS011;1438;50.922;6.704;2023-04-01T22:26:30;12.52;;;11.13;;
2860;SDS011;1438;50.922;6.704;2023-04-01T22:31:02;13.20;;;11.20;;
2860;SDS011;1438;50.922;6.704;2023-04-01T22:42:04;9.10;;;8.25;;
2860;SDS011;1438;50.922;6.704;2023-04-01T22:47:20;9.23;;;8.32;;
2860;SDS011;1438;50.922;6.704;2023-04-01T22:49:50;8.15;;;7.35;;
2860;SDS011;1438;50.922;6.704;2023-04-01T22:55:25;7.95;;;6.00;;
2860;SDS011;1438;50.922;6.704;2023-04-01T23:03:13;7.55;;;6.55;;
2860;SDS011;1438;50.922;6.704;2023-04-01T23:05:51;7.28;;;6.57;;
2860;SDS011;1438;50.922;6.704;2023-04-01T23:11:09;5.80;;;5.20;;
2860;SDS011;1438;50.922;6.704;2023-04-01T23:13:44;8.90;;;8.00;;
2860;SDS011;1438;50.922;6.704;2023-04-01T23:16:17;8.43;;;7.60;;
2860;SDS011;1438;50.922;6.704;2023-04-01T23:18:58;8.80;;;7.90;;
2860;SDS011;1438;50.922;6.704;2023-04-01T23:21:54;10.15;;;9.15;;
2860;SDS011;1438;50.922;6.704;2023-04-01T23:24:53;9.10;;;8.07;;
2860;SDS011;1438;50.922;6.704;2023-04-01T23:30:02;11.23;;;10.13;;
2860;SDS011;1438;50.922;6.704;2023-04-01T23:32:28;11.45;;;10.13;;
2860;SDS011;1438;50.922;6.704;2023-04-01T23:34:55;9.75;;;8.52;;
2860;SDS011;1438;50.922;6.704;2023-04-01T23:37:23;11.35;;;10.15;;
2860;SDS011;1438;50.922;6.704;2023-04-01T23:39:57;12.93;;;10.40;;
2860;SDS011;1438;50.922;6.704;2023-04-01T23:42:30;13.02;;;11.07;;
2860;SDS011;1438;50.922;6.704;2023-04-01T23:44:59;13.73;;;11.68;;
2860;SDS011;1438;50.922;6.704;2023-04-01T23:47:29;12.05;;;10.63;;
2860;SDS011;1438;50.922;6.704;2023-04-01T23:50:01;12.75;;;11.05;;
2860;SDS011;1438;50.922;6.704;2023-04-01T23:52:36;13.88;;;11.65;;
2860;SDS011;1438;50.922;6.704;2023-04-01T23:55:21;12.15;;;10.52;;
